sensor_id;sensor_type;location;lat;lon;timestamp;pressure;altitude;pressure_sealevel;temperature;humidity
80147;BME280;69472;55.812;37.638;2023-04-25T00:03:48;99187.88;;;15.77;35.79
80147;BME280;69472;55.812;37.638;2023-04-25T00:08:49;99216.84;;;15.82;36.60
80147;BME280;69472;55.812;37.638;2023-04-25T00:13:50;99217.41;;;15.56;37.48
80147;BME280;69472;55.812;37.638;2023-04-25T00:18:54;99213.09;;;15.72;37.27
80147;BME280;69472;55.812;37.638;2023-04-25T00:23:55;99215.91;;;15.68;37.79
80147;BME280;69472;55.812;37.638;2023-04-25T00:28:56;99222.78;;;15.52;38.27
80147;BME280;69472;55.812;37.638;2023-04-25T00:33:57;99198.84;;;15.32;38.99
80147;BME280;69472;55.812;37.638;2023-04-25T00:38:58;99224.28;;;15.56;39.35
80147;BME280;69472;55.812;37.638;2023-04-25T00:43:59;99222.56;;;15.72;38.44
80147;BME280;69472;55.812;37.638;2023-04-25T00:49:01;99202.63;;;15.75;38.39
80147;BME280;69472;55.812;37.638;2023-04-25T00:54:01;99183.72;;;15.59;38.95
80147;BME280;69472;55.812;37.638;2023-04-25T00:59:03;99210.75;;;15.68;39.34
80147;BME280;69472;55.812;37.638;2023-04-25T01:04:04;99212.63;;;15.49;39.57
80147;BME280;69472;55.812;37.638;2023-04-25T01:09:05;99215.66;;;15.39;39.82
80147;BME280;69472;55.812;37.638;2023-04-25T01:14:05;99215.59;;;15.24;40.45
80147;BME280;69472;55.812;37.638;2023-04-25T01:19:09;99213.34;;;15.18;40.80
80147;BME280;69472;55.812;37.638;2023-04-25T01:24:13;99213.69;;;14.95;42.02
80147;BME280;69472;55.812;37.638;2023-04-25T01:29:13;99215.78;;;15.04;41.34
80147;BME280;69472;55.812;37.638;2023-04-25T01:34:14;99174.94;;;14.96;41.41
80147;BME280;69472;55.812;37.638;2023-04-25T01:39:16;99195.81;;;15.24;40.93
80147;BME280;69472;55.812;37.638;2023-04-25T01:44:17;99191.63;;;15.39;41.06
80147;BME280;69472;55.812;37.638;2023-04-25T01:49:18;99184.78;;;15.38;40.92
80147;BME280;69472;55.812;37.638;2023-04-25T01:54:18;99186.00;;;15.48;40.80
80147;BME280;69472;55.812;37.638;2023-04-25T01:59:19;99190.91;;;15.53;40.90
80147;BME280;69472;55.812;37.638;2023-04-25T02:04:23;99183.97;;;15.55;41.28
80147;BME280;69472;55.812;37.638;2023-04-25T02:09:24;99184.09;;;15.52;41.45
80147;BME280;69472;55.812;37.638;2023-04-25T02:14:25;99183.53;;;15.62;41.34
80147;BME280;69472;55.812;37.638;2023-04-25T02:19:25;99190.31;;;15.80;40.71
80147;BME280;69472;55.812;37.638;2023-04-25T02:24:26;99179.63;;;15.86;40.81
80147;BME280;69472;55.812;37.638;2023-04-25T02:29:29;99175.06;;;15.91;41.04
80147;BME280;69472;55.812;37.638;2023-04-25T02:34:29;99177.63;;;15.91;41.06
80147;BME280;69472;55.812;37.638;2023-04-25T02:39:30;99177.28;;;16.29;40.82
80147;BME280;69472;55.812;37.638;2023-04-25T02:44:31;99177.94;;;16.48;40.41
80147;BME280;69472;55.812;37.638;2023-04-25T02:49:32;99174.78;;;16.72;40.52
80147;BME280;69472;55.812;37.638;2023-04-25T02:54:32;99166.47;;;17.25;39.68
80147;BME280;69472;55.812;37.638;2023-04-25T02:59:33;99172.66;;;17.79;39.17
80147;BME280;69472;55.812;37.638;2023-04-25T03:04:34;99173.84;;;17.74;38.79
80147;BME280;69472;55.812;37.638;2023-04-25T03:09:35;99178.53;;;17.95;38.59
80147;BME280;69472;55.812;37.638;2023-04-25T03:14:36;99181.34;;;17.36;39.02
80147;BME280;69472;55.812;37.638;2023-04-25T03:19:36;99188.16;;;17.23;39.77
80147;BME280;69472;55.812;37.638;2023-04-25T03:24:37;99193.88;;;17.14;39.80
80147;BME280;69472;55.812;37.638;2023-04-25T03:29:38;99189.16;;;16.92;39.63
80147;BME280;69472;55.812;37.638;2023-04-25T03:34:38;99181.47;;;16.77;40.46
80147;BME280;69472;55.812;37.638;2023-04-25T03:39:40;99201.28;;;17.06;40.08
80147;BME280;69472;55.812;37.638;2023-04-25T03:44:41;99200.91;;;17.40;39.74
80147;BME280;69472;55.812;37.638;2023-04-25T03:49:41;99199.69;;;18.02;38.40
80147;BME280;69472;55.812;37.638;2023-04-25T03:54:42;99195.41;;;18.15;37.89
80147;BME280;69472;55.812;37.638;2023-04-25T03:59:43;99192.97;;;17.01;40.39
80147;BME280;69472;55.812;37.638;2023-04-25T04:04:44;99182.97;;;18.61;38.11
80147;BME280;69472;55.812;37.638;2023-04-25T04:09:45;99186.94;;;18.79;37.29
80147;BME280;69472;55.812;37.638;2023-04-25T04:14:46;99184.38;;;17.99;38.80
80147;BME280;69472;55.812;37.638;2023-04-25T04:19:47;99181.09;;;18.09;38.63
80147;BME280;69472;55.812;37.638;2023-04-25T04:24:47;99191.81;;;20.44;35.80
80147;BME280;69472;55.812;37.638;2023-04-25T04:29:50;99188.06;;;20.48;35.38
80147;BME280;69472;55.812;37.638;2023-04-25T04:34:53;99166.31;;;20.73;34.71
80147;BME280;69472;55.812;37.638;2023-04-25T04:39:55;99178.75;;;22.25;33.44
80147;BME280;69472;55.812;37.638;2023-04-25T04:44:56;99185.56;;;22.48;32.95
80147;BME280;69472;55.812;37.638;2023-04-25T04:49:58;99163.81;;;22.58;32.66
80147;BME280;69472;55.812;37.638;2023-04-25T04:54:59;99184.69;;;23.20;32.16
80147;BME280;69472;55.812;37.638;2023-04-25T05:00:00;99186.13;;;23.24;31.57
80147;BME280;69472;55.812;37.638;2023-04-25T05:05:02;99181.38;;;23.69;30.91
80147;BME280;69472;55.812;37.638;2023-04-25T05:10:03;99180.53;;;22.88;31.29
80147;BME280;69472;55.812;37.638;2023-04-25T05:15:04;99176.91;;;23.90;31.14
80147;BME280;69472;55.812;37.638;2023-04-25T05:20:08;99182.13;;;24.78;28.89
80147;BME280;69472;55.812;37.638;2023-04-25T05:25:11;99172.50;;;25.71;28.08
80147;BME280;69472;55.812;37.638;2023-04-25T05:30:12;99169.72;;;26.80;27.48
80147;BME280;69472;55.812;37.638;2023-04-25T05:35:13;99170.50;;;26.81;26.58
80147;BME280;69472;55.812;37.638;2023-04-25T05:40:14;99155.53;;;26.38;26.88
80147;BME280;69472;55.812;37.638;2023-04-25T05:45:15;99172.34;;;27.06;25.76
80147;BME280;69472;55.812;37.638;2023-04-25T05:50:18;99166.38;;;26.25;26.46
80147;BME280;69472;55.812;37.638;2023-04-25T05:55:18;99156.66;;;27.22;26.00
80147;BME280;69472;55.812;37.638;2023-04-25T06:00:19;99156.78;;;26.87;25.90
80147;BME280;69472;55.812;37.638;2023-04-25T06:05:22;99155.34;;;27.85;24.20
80147;BME280;69472;55.812;37.638;2023-04-25T06:10:23;99148.13;;;29.41;22.68
80147;BME280;69472;55.812;37.638;2023-04-25T06:15:24;99142.56;;;29.36;23.38
80147;BME280;69472;55.812;37.638;2023-04-25T06:20:24;99128.53;;;30.35;22.11
80147;BME280;69472;55.812;37.638;2023-04-25T06:25:25;99129.66;;;30.78;21.52
80147;BME280;69472;55.812;37.638;2023-04-25T06:30:26;99114.94;;;30.61;20.97
80147;BME280;69472;55.812;37.638;2023-04-25T06:35:27;99122.69;;;31.00;20.18
80147;BME280;69472;55.812;37.638;2023-04-25T06:40:27;99122.16;;;31.99;20.14
80147;BME280;69472;55.812;37.638;2023-04-25T06:45:28;99124.44;;;31.51;20.12
80147;BME280;69472;55.812;37.638;2023-04-25T06:50:28;99133.78;;;31.83;20.46
80147;BME280;69472;55.812;37.638;2023-04-25T06:55:30;99129.31;;;32.89;19.22
80147;BME280;69472;55.812;37.638;2023-04-25T07:00:30;99117.97;;;33.36;19.45
80147;BME280;69472;55.812;37.638;2023-04-25T07:05:32;99117.75;;;37.78;15.98
80147;BME280;69472;55.812;37.638;2023-04-25T07:10:33;99129.53;;;47.04;10.16
80147;BME280;69472;55.812;37.638;2023-04-25T07:15:33;99133.56;;;51.76;8.18
80147;BME280;69472;55.812;37.638;2023-04-25T07:20:34;99128.19;;;49.15;9.00
80147;BME280;69472;55.812;37.638;2023-04-25T07:25:35;99128.00;;;48.84;8.74
80147;BME280;69472;55.812;37.638;2023-04-25T07:30:35;99121.69;;;51.81;8.06
80147;BME280;69472;55.812;37.638;2023-04-25T07:35:37;99114.13;;;48.21;8.89
80147;BME280;69472;55.812;37.638;2023-04-25T07:40:37;99114.19;;;52.58;7.90
80147;BME280;69472;55.812;37.638;2023-04-25T07:45:38;99102.94;;;50.75;7.74
80147;BME280;69472;55.812;37.638;2023-04-25T07:50:38;99122.88;;;47.20;8.92
80147;BME280;69472;55.812;37.638;2023-04-25T07:55:40;99127.09;;;51.38;7.92
80147;BME280;69472;55.812;37.638;2023-04-25T08:00:40;99125.22;;;48.06;8.64
80147;BME280;69472;55.812;37.638;2023-04-25T08:05:42;99116.81;;;46.47;9.37
80147;BME280;69472;55.812;37.638;2023-04-25T08:10:43;99094.75;;;44.48;10.57
80147;BME280;69472;55.812;37.638;2023-04-25T08:15:43;99111.94;;;32.38;16.71
80147;BME280;69472;55.812;37.638;2023-04-25T08:20:44;99110.91;;;29.82;19.42
80147;BME280;69472;55.812;37.638;2023-04-25T08:25:45;99114.00;;;26.16;23.79
80147;BME280;69472;55.812;37.638;2023-04-25T08:30:46;99118.16;;;26.09;23.56
80147;BME280;69472;55.812;37.638;2023-04-25T08:35:46;99084.81;;;26.01;24.78
80147;BME280;69472;55.812;37.638;2023-04-25T08:40:50;99103.84;;;23.79;26.96
80147;BME280;69472;55.812;37.638;2023-04-25T08:45:59;99095.75;;;24.59;25.78
80147;BME280;69472;55.812;37.638;2023-04-25T08:51:02;99098.66;;;24.56;25.60
80147;BME280;69472;55.812;37.638;2023-04-25T08:56:05;99100.84;;;24.03;27.75
80147;BME280;69472;55.812;37.638;2023-04-25T09:01:06;99092.16;;;23.34;28.21
80147;BME280;69472;55.812;37.638;2023-04-25T09:06:07;99080.19;;;23.81;28.05
80147;BME280;69472;55.812;37.638;2023-04-25T09:11:08;99079.06;;;23.64;28.06
80147;BME280;69472;55.812;37.638;2023-04-25T09:16:09;99071.84;;;23.07;29.10
80147;BME280;69472;55.812;37.638;2023-04-25T09:21:11;99066.53;;;23.18;28.86
80147;BME280;69472;55.812;37.638;2023-04-25T09:26:20;99057.50;;;22.51;30.05
80147;BME280;69472;55.812;37.638;2023-04-25T09:31:22;99065.75;;;21.83;30.77
80147;BME280;69472;55.812;37.638;2023-04-25T09:36:26;99055.59;;;22.32;30.51
80147;BME280;69472;55.812;37.638;2023-04-25T09:41:27;99056.25;;;21.39;31.77
80147;BME280;69472;55.812;37.638;2023-04-25T09:46:33;99037.22;;;21.16;32.88
80147;BME280;69472;55.812;37.638;2023-04-25T09:51:35;99042.59;;;21.58;31.50
80147;BME280;69472;55.812;37.638;2023-04-25T09:56:36;99049.41;;;21.05;32.22
80147;BME280;69472;55.812;37.638;2023-04-25T10:01:40;99045.25;;;20.80;31.58
80147;BME280;69472;55.812;37.638;2023-04-25T10:06:42;99024.31;;;20.59;32.01
80147;BME280;69472;55.812;37.638;2023-04-25T10:11:43;99033.91;;;20.92;31.52
80147;BME280;69472;55.812;37.638;2023-04-25T10:16:45;99034.25;;;21.32;31.37
80147;BME280;69472;55.812;37.638;2023-04-25T10:21:57;99023.91;;;21.53;30.90
80147;BME280;69472;55.812;37.638;2023-04-25T10:27:00;99023.59;;;21.35;31.02
80147;BME280;69472;55.812;37.638;2023-04-25T10:32:02;99006.28;;;21.45;31.35
80147;BME280;69472;55.812;37.638;2023-04-25T10:37:03;99009.63;;;21.36;30.86
80147;BME280;69472;55.812;37.638;2023-04-25T10:42:03;99012.84;;;21.17;30.98
80147;BME280;69472;55.812;37.638;2023-04-25T10:47:07;99008.72;;;21.04;30.52
80147;BME280;69472;55.812;37.638;2023-04-25T10:57:31;98992.16;;;21.05;30.70
80147;BME280;69472;55.812;37.638;2023-04-25T11:02:43;98982.53;;;21.38;30.17
80147;BME280;69472;55.812;37.638;2023-04-25T11:07:50;98975.41;;;21.41;29.92
80147;BME280;69472;55.812;37.638;2023-04-25T11:12:52;98970.88;;;20.89;30.53
80147;BME280;69472;55.812;37.638;2023-04-25T11:17:53;98960.84;;;20.51;30.20
80147;BME280;69472;55.812;37.638;2023-04-25T11:22:54;98953.38;;;20.68;30.17
80147;BME280;69472;55.812;37.638;2023-04-25T11:27:58;98963.53;;;19.92;31.52
80147;BME280;69472;55.812;37.638;2023-04-25T11:33:00;98951.59;;;20.47;29.97
80147;BME280;69472;55.812;37.638;2023-04-25T11:38:01;98913.97;;;20.06;30.47
80147;BME280;69472;55.812;37.638;2023-04-25T11:43:01;98935.88;;;20.37;30.45
80147;BME280;69472;55.812;37.638;2023-04-25T11:48:02;98929.84;;;20.92;29.37
80147;BME280;69472;55.812;37.638;2023-04-25T11:53:03;98930.34;;;20.75;30.42
80147;BME280;69472;55.812;37.638;2023-04-25T11:58:04;98914.88;;;20.40;31.50
80147;BME280;69472;55.812;37.638;2023-04-25T12:03:09;98915.81;;;20.73;31.26
80147;BME280;69472;55.812;37.638;2023-04-25T12:08:10;98899.22;;;20.18;32.55
80147;BME280;69472;55.812;37.638;2023-04-25T12:13:23;98905.13;;;19.98;32.71
80147;BME280;69472;55.812;37.638;2023-04-25T12:18:24;98891.00;;;20.57;31.64
80147;BME280;69472;55.812;37.638;2023-04-25T12:23:28;98890.94;;;20.13;32.36
80147;BME280;69472;55.812;37.638;2023-04-25T12:28:32;98866.09;;;20.44;31.94
80147;BME280;69472;55.812;37.638;2023-04-25T12:33:37;98870.81;;;20.39;32.15
80147;BME280;69472;55.812;37.638;2023-04-25T12:38:42;98864.13;;;20.79;31.66
80147;BME280;69472;55.812;37.638;2023-04-25T12:43:43;98850.97;;;20.38;32.36
80147;BME280;69472;55.812;37.638;2023-04-25T12:48:43;98848.59;;;20.13;33.09
80147;BME280;69472;55.812;37.638;2023-04-25T12:53:44;98844.47;;;20.32;33.02
80147;BME280;69472;55.812;37.638;2023-04-25T12:58:45;98830.47;;;20.66;32.41
80147;BME280;69472;55.812;37.638;2023-04-25T13:03:47;98829.47;;;20.25;32.98
80147;BME280;69472;55.812;37.638;2023-04-25T13:08:48;98820.44;;;20.62;32.38
80147;BME280;69472;55.812;37.638;2023-04-25T13:13:49;98813.19;;;20.77;32.42
80147;BME280;69472;55.812;37.638;2023-04-25T13:18:49;98809.63;;;20.13;34.07
80147;BME280;69472;55.812;37.638;2023-04-25T13:23:50;98792.47;;;19.99;33.75
80147;BME280;69472;55.812;37.638;2023-04-25T13:28:51;98807.69;;;19.59;34.48
80147;BME280;69472;55.812;37.638;2023-04-25T13:33:51;98798.09;;;19.14;35.00
80147;BME280;69472;55.812;37.638;2023-04-25T13:38:52;98797.91;;;19.74;34.08
80147;BME280;69472;55.812;37.638;2023-04-25T13:43:53;98797.56;;;20.12;33.24
80147;BME280;69472;55.812;37.638;2023-04-25T13:48:53;98771.13;;;19.95;33.49
80147;BME280;69472;55.812;37.638;2023-04-25T13:53:54;98768.25;;;20.21;33.04
80147;BME280;69472;55.812;37.638;2023-04-25T13:58:54;98770.63;;;19.57;34.26
80147;BME280;69472;55.812;37.638;2023-04-25T14:03:55;98760.25;;;20.13;33.04
80147;BME280;69472;55.812;37.638;2023-04-25T14:08:56;98753.63;;;20.08;32.33
80147;BME280;69472;55.812;37.638;2023-04-25T14:13:57;98749.03;;;19.90;32.31
80147;BME280;69472;55.812;37.638;2023-04-25T14:18:58;98735.94;;;20.25;31.87
80147;BME280;69472;55.812;37.638;2023-04-25T14:23:59;98733.06;;;20.39;32.16
80147;BME280;69472;55.812;37.638;2023-04-25T14:28:59;98715.06;;;20.47;31.59
80147;BME280;69472;55.812;37.638;2023-04-25T14:34:01;98713.66;;;20.43;31.93
80147;BME280;69472;55.812;37.638;2023-04-25T14:39:03;98710.00;;;19.91;32.71
80147;BME280;69472;55.812;37.638;2023-04-25T14:44:05;98675.97;;;19.94;32.45
80147;BME280;69472;55.812;37.638;2023-04-25T14:49:06;98697.53;;;20.17;32.79
80147;BME280;69472;55.812;37.638;2023-04-25T14:54:07;98681.88;;;19.85;33.16
80147;BME280;69472;55.812;37.638;2023-04-25T14:59:08;98674.59;;;19.68;33.37
80147;BME280;69472;55.812;37.638;2023-04-25T15:04:08;98677.84;;;19.26;34.06
80147;BME280;69472;55.812;37.638;2023-04-25T15:09:09;98668.59;;;19.46;34.03
80147;BME280;69472;55.812;37.638;2023-04-25T15:14:10;98649.31;;;19.70;33.51
80147;BME280;69472;55.812;37.638;2023-04-25T15:19:11;98644.97;;;19.71;33.24
80147;BME280;69472;55.812;37.638;2023-04-25T15:24:12;98629.97;;;19.19;32.98
80147;BME280;69472;55.812;37.638;2023-04-25T15:29:14;98618.38;;;18.79;33.06
80147;BME280;69472;55.812;37.638;2023-04-25T15:34:15;98624.41;;;19.12;32.69
80147;BME280;69472;55.812;37.638;2023-04-25T15:39:16;98613.09;;;19.24;32.86
80147;BME280;69472;55.812;37.638;2023-04-25T15:44:17;98591.41;;;19.25;32.71
80147;BME280;69472;55.812;37.638;2023-04-25T15:49:17;98620.66;;;19.27;32.91
80147;BME280;69472;55.812;37.638;2023-04-25T15:54:20;98608.50;;;19.06;33.72
80147;BME280;69472;55.812;37.638;2023-04-25T15:59:21;98593.66;;;19.19;33.25
80147;BME280;69472;55.812;37.638;2023-04-25T16:04:22;98595.09;;;19.12;33.78
80147;BME280;69472;55.812;37.638;2023-04-25T16:09:24;98589.75;;;18.91;34.16
80147;BME280;69472;55.812;37.638;2023-04-25T16:14:25;98561.94;;;18.82;34.67
80147;BME280;69472;55.812;37.638;2023-04-25T16:19:25;98583.03;;;18.78;34.55
80147;BME280;69472;55.812;37.638;2023-04-25T16:24:26;98570.06;;;18.66;34.96
80147;BME280;69472;55.812;37.638;2023-04-25T16:29:27;98563.81;;;18.80;35.15
80147;BME280;69472;55.812;37.638;2023-04-25T16:34:27;98564.63;;;18.58;35.84
80147;BME280;69472;55.812;37.638;2023-04-25T16:39:28;98562.03;;;18.58;36.23
80147;BME280;69472;55.812;37.638;2023-04-25T16:44:29;98559.56;;;18.57;35.74
80147;BME280;69472;55.812;37.638;2023-04-25T16:49:30;98557.53;;;18.49;35.55
80147;BME280;69472;55.812;37.638;2023-04-25T16:54:31;98558.66;;;18.45;36.25
80147;BME280;69472;55.812;37.638;2023-04-25T16:59:32;98554.72;;;18.29;36.46
80147;BME280;69472;55.812;37.638;2023-04-25T17:04:32;98554.38;;;18.33;36.49
80147;BME280;69472;55.812;37.638;2023-04-25T17:09:33;98553.31;;;18.36;36.42
80147;BME280;69472;55.812;37.638;2023-04-25T17:14:34;98554.28;;;18.35;36.28
80147;BME280;69472;55.812;37.638;2023-04-25T17:19:36;98548.50;;;18.31;36.86
80147;BME280;69472;55.812;37.638;2023-04-25T17:24:37;98565.47;;;18.35;36.64
80147;BME280;69472;55.812;37.638;2023-04-25T17:29:39;98571.78;;;18.20;39.23
80147;BME280;69472;55.812;37.638;2023-04-25T17:34:40;98568.75;;;18.02;41.45
80147;BME280;69472;55.812;37.638;2023-04-25T17:39:43;98577.72;;;17.50;43.60
80147;BME280;69472;55.812;37.638;2023-04-25T17:44:44;98574.19;;;17.27;45.22
80147;BME280;69472;55.812;37.638;2023-04-25T17:49:45;98578.25;;;17.42;45.14
80147;BME280;69472;55.812;37.638;2023-04-25T17:54:45;98564.75;;;17.38;46.45
80147;BME280;69472;55.812;37.638;2023-04-25T17:59:46;98562.88;;;17.40;47.08
80147;BME280;69472;55.812;37.638;2023-04-25T18:04:47;98564.22;;;17.33;47.82
80147;BME280;69472;55.812;37.638;2023-04-25T18:09:47;98569.69;;;17.41;48.23
80147;BME280;69472;55.812;37.638;2023-04-25T18:14:48;98566.31;;;17.16;50.19
80147;BME280;69472;55.812;37.638;2023-04-25T18:19:49;98556.81;;;17.04;50.22
80147;BME280;69472;55.812;37.638;2023-04-25T18:24:50;98564.03;;;17.24;49.76
80147;BME280;69472;55.812;37.638;2023-04-25T18:29:51;98559.84;;;17.10;50.24
80147;BME280;69472;55.812;37.638;2023-04-25T18:34:54;98564.28;;;16.83;51.72
80147;BME280;69472;55.812;37.638;2023-04-25T18:39:54;98557.38;;;16.84;51.24
80147;BME280;69472;55.812;37.638;2023-04-25T18:44:55;98566.75;;;16.97;50.33
80147;BME280;69472;55.812;37.638;2023-04-25T18:49:56;98548.16;;;17.05;49.83
80147;BME280;69472;55.812;37.638;2023-04-25T18:54:56;98533.09;;;16.61;51.41
80147;BME280;69472;55.812;37.638;2023-04-25T18:59:57;98534.53;;;16.90;49.91
80147;BME280;69472;55.812;37.638;2023-04-25T19:04:58;98534.53;;;16.90;50.05
80147;BME280;69472;55.812;37.638;2023-04-25T19:09:58;98504.47;;;16.89;50.19
80147;BME280;69472;55.812;37.638;2023-04-25T19:14:59;98519.66;;;16.81;51.03
80147;BME280;69472;55.812;37.638;2023-04-25T19:20:01;98521.50;;;16.54;52.03
80147;BME280;69472;55.812;37.638;2023-04-25T19:25:02;98516.94;;;16.70;51.77
80147;BME280;69472;55.812;37.638;2023-04-25T19:30:04;98505.38;;;16.63;51.79
80147;BME280;69472;55.812;37.638;2023-04-25T19:35:10;98502.38;;;16.44;53.06
80147;BME280;69472;55.812;37.638;2023-04-25T19:40:13;98500.97;;;16.00;53.31
80147;BME280;69472;55.812;37.638;2023-04-25T19:45:13;98497.22;;;16.56;51.21
80147;BME280;69472;55.812;37.638;2023-04-25T19:50:14;98488.53;;;16.45;51.75
80147;BME280;69472;55.812;37.638;2023-04-25T19:55:15;98490.78;;;16.12;52.86
80147;BME280;69472;55.812;37.638;2023-04-25T20:00:19;98475.53;;;16.34;51.17
80147;BME280;69472;55.812;37.638;2023-04-25T20:05:20;98475.69;;;16.05;52.83
80147;BME280;69472;55.812;37.638;2023-04-25T20:10:22;98462.97;;;15.90;52.83
80147;BME280;69472;55.812;37.638;2023-04-25T20:15:24;98460.91;;;15.82;53.27
80147;BME280;69472;55.812;37.638;2023-04-25T20:20:24;98456.34;;;15.73;53.28
80147;BME280;69472;55.812;37.638;2023-04-25T20:25:25;98442.72;;;15.71;53.85
80147;BME280;69472;55.812;37.638;2023-04-25T20:30:26;98417.44;;;15.64;53.90
80147;BME280;69472;55.812;37.638;2023-04-25T20:35:27;98419.50;;;15.71;53.61
80147;BME280;69472;55.812;37.638;2023-04-25T20:40:27;98400.00;;;15.55;53.68
80147;BME280;69472;55.812;37.638;2023-04-25T20:45:28;98408.22;;;15.47;55.13
80147;BME280;69472;55.812;37.638;2023-04-25T20:50:32;98408.34;;;15.58;54.21
80147;BME280;69472;55.812;37.638;2023-04-25T20:55:33;98397.00;;;15.34;55.24
80147;BME280;69472;55.812;37.638;2023-04-25T21:00:34;98392.38;;;15.39;55.09
80147;BME280;69472;55.812;37.638;2023-04-25T21:05:35;98386.44;;;15.24;56.47
80147;BME280;69472;55.812;37.638;2023-04-25T21:10:36;98380.38;;;14.99;57.19
80147;BME280;69472;55.812;37.638;2023-04-25T21:15:37;98375.34;;;14.83;57.72
80147;BME280;69472;55.812;37.638;2023-04-25T21:20:38;98369.34;;;14.70;58.81
80147;BME280;69472;55.812;37.638;2023-04-25T21:25:38;98363.63;;;14.65;59.18
80147;BME280;69472;55.812;37.638;2023-04-25T21:30:39;98357.97;;;14.18;61.31
80147;BME280;69472;55.812;37.638;2023-04-25T21:35:41;98345.88;;;14.74;59.32
80147;BME280;69472;55.812;37.638;2023-04-25T21:40:42;98342.81;;;14.41;60.93
80147;BME280;69472;55.812;37.638;2023-04-25T21:45:43;98334.53;;;14.08;62.08
80147;BME280;69472;55.812;37.638;2023-04-25T21:50:44;98322.88;;;14.31;61.66
80147;BME280;69472;55.812;37.638;2023-04-25T21:55:44;98309.38;;;14.13;62.75
80147;BME280;69472;55.812;37.638;2023-04-25T22:00:45;98328.28;;;14.26;63.14
80147;BME280;69472;55.812;37.638;2023-04-25T22:05:46;98309.91;;;14.04;63.36
80147;BME280;69472;55.812;37.638;2023-04-25T22:10:47;98316.34;;;13.97;64.66
80147;BME280;69472;55.812;37.638;2023-04-25T22:15:48;98318.34;;;13.92;65.60
80147;BME280;69472;55.812;37.638;2023-04-25T22:20:49;98307.00;;;13.96;65.39
80147;BME280;69472;55.812;37.638;2023-04-25T22:25:49;98307.16;;;13.79;66.42
80147;BME280;69472;55.812;37.638;2023-04-25T22:30:50;98303.03;;;13.76;67.72
80147;BME280;69472;55.812;37.638;2023-04-25T22:35:51;98293.84;;;13.86;66.59
80147;BME280;69472;55.812;37.638;2023-04-25T22:40:51;98291.00;;;14.05;65.69
80147;BME280;69472;55.812;37.638;2023-04-25T22:45:52;98272.47;;;13.58;68.67
80147;BME280;69472;55.812;37.638;2023-04-25T22:51:02;98251.63;;;13.48;68.24
80147;BME280;69472;55.812;37.638;2023-04-25T22:56:08;98253.88;;;13.95;67.20
80147;BME280;69472;55.812;37.638;2023-04-25T23:01:09;98264.19;;;13.53;69.38
80147;BME280;69472;55.812;37.638;2023-04-25T23:06:10;98249.16;;;13.75;69.35
80147;BME280;69472;55.812;37.638;2023-04-25T23:11:12;98240.28;;;13.36;71.09
80147;BME280;69472;55.812;37.638;2023-04-25T23:16:13;98234.25;;;13.37;72.35
80147;BME280;69472;55.812;37.638;2023-04-25T23:21:14;98227.38;;;13.38;72.43
80147;BME280;69472;55.812;37.638;2023-04-25T23:26:15;98219.38;;;13.14;74.68
80147;BME280;69472;55.812;37.638;2023-04-25T23:31:16;98209.84;;;13.30;72.23
80147;BME280;69472;55.812;37.638;2023-04-25T23:36:17;98213.13;;;13.18;72.80
80147;BME280;69472;55.812;37.638;2023-04-25T23:41:21;98197.09;;;12.99;75.46
80147;BME280;69472;55.812;37.638;2023-04-25T23:46:22;98198.66;;;12.72;77.94
80147;BME280;69472;55.812;37.638;2023-04-25T23:51:22;98185.50;;;12.78;77.03
80147;BME280;69472;55.812;37.638;2023-04-25T23:56:24;98169.41;;;12.60;76.69
